sensor_id;sensor_type;location;lat;lon;timestamp;temperature;humidity
24678;DHT22;12800;53.094;8.778;2023-04-24T00:00:36;14.00;83.00
24678;DHT22;12800;53.094;8.778;2023-04-24T00:03:06;14.00;82.90
24678;DHT22;12800;53.094;8.778;2023-04-24T00:05:32;14.00;82.80
24678;DHT22;12800;53.094;8.778;2023-04-24T00:07:59;14.00;82.70
24678;DHT22;12800;53.094;8.778;2023-04-24T00:10:25;14.00;82.70
24678;DHT22;12800;53.094;8.778;2023-04-24T00:12:51;14.00;82.80
24678;DHT22;12800;53.094;8.778;2023-04-24T00:15:16;14.00;82.70
24678;DHT22;12800;53.094;8.778;2023-04-24T00:17:42;14.10;82.80
24678;DHT22;12800;53.094;8.778;2023-04-24T00:20:08;14.10;82.70
24678;DHT22;12800;53.094;8.778;2023-04-24T00:22:35;14.10;82.60
24678;DHT22;12800;53.094;8.778;2023-04-24T00:25:01;14.00;82.50
24678;DHT22;12800;53.094;8.778;2023-04-24T00:27:26;14.00;82.40
24678;DHT22;12800;53.094;8.778;2023-04-24T00:29:52;14.00;82.40
24678;DHT22;12800;53.094;8.778;2023-04-24T00:32:18;14.00;82.30
24678;DHT22;12800;53.094;8.778;2023-04-24T00:34:44;14.00;82.20
24678;DHT22;12800;53.094;8.778;2023-04-24T00:37:09;14.00;82.30
24678;DHT22;12800;53.094;8.778;2023-04-24T00:39:35;14.00;82.00
24678;DHT22;12800;53.094;8.778;2023-04-24T00:42:01;13.90;81.90
24678;DHT22;12800;53.094;8.778;2023-04-24T00:44:27;13.90;81.40
24678;DHT22;12800;53.094;8.778;2023-04-24T00:46:54;13.90;81.90
24678;DHT22;12800;53.094;8.778;2023-04-24T00:49:21;13.80;80.40
24678;DHT22;12800;53.094;8.778;2023-04-24T00:51:47;13.80;79.80
24678;DHT22;12800;53.094;8.778;2023-04-24T00:54:14;13.80;79.60
24678;DHT22;12800;53.094;8.778;2023-04-24T00:56:41;13.80;79.00
24678;DHT22;12800;53.094;8.778;2023-04-24T00:59:08;13.70;78.90
24678;DHT22;12800;53.094;8.778;2023-04-24T01:01:34;13.70;78.90
24678;DHT22;12800;53.094;8.778;2023-04-24T01:04:00;13.70;78.70
24678;DHT22;12800;53.094;8.778;2023-04-24T01:06:30;13.70;78.60
24678;DHT22;12800;53.094;8.778;2023-04-24T01:08:57;13.70;78.30
24678;DHT22;12800;53.094;8.778;2023-04-24T01:11:24;13.60;77.80
24678;DHT22;12800;53.094;8.778;2023-04-24T01:13:50;13.60;77.90
24678;DHT22;12800;53.094;8.778;2023-04-24T01:16:16;13.60;78.10
24678;DHT22;12800;53.094;8.778;2023-04-24T01:18:43;13.60;78.10
24678;DHT22;12800;53.094;8.778;2023-04-24T01:21:09;13.60;78.00
24678;DHT22;12800;53.094;8.778;2023-04-24T01:23:36;13.50;78.00
24678;DHT22;12800;53.094;8.778;2023-04-24T01:26:02;13.50;78.10
24678;DHT22;12800;53.094;8.778;2023-04-24T01:28:27;13.50;78.30
24678;DHT22;12800;53.094;8.778;2023-04-24T01:30:53;13.50;78.00
24678;DHT22;12800;53.094;8.778;2023-04-24T01:33:21;13.50;77.80
24678;DHT22;12800;53.094;8.778;2023-04-24T01:35:47;13.50;78.00
24678;DHT22;12800;53.094;8.778;2023-04-24T01:38:13;13.50;77.90
24678;DHT22;12800;53.094;8.778;2023-04-24T01:40:39;13.60;78.00
24678;DHT22;12800;53.094;8.778;2023-04-24T01:43:05;13.60;78.00
24678;DHT22;12800;53.094;8.778;2023-04-24T01:45:30;13.60;77.80
24678;DHT22;12800;53.094;8.778;2023-04-24T01:47:56;13.60;77.80
24678;DHT22;12800;53.094;8.778;2023-04-24T01:50:22;13.60;77.70
24678;DHT22;12800;53.094;8.778;2023-04-24T01:52:48;13.60;77.40
24678;DHT22;12800;53.094;8.778;2023-04-24T01:55:13;13.60;77.30
24678;DHT22;12800;53.094;8.778;2023-04-24T01:57:39;13.60;77.20
24678;DHT22;12800;53.094;8.778;2023-04-24T02:00:06;13.60;77.20
24678;DHT22;12800;53.094;8.778;2023-04-24T02:02:32;13.50;76.90
24678;DHT22;12800;53.094;8.778;2023-04-24T02:04:58;13.50;76.70
24678;DHT22;12800;53.094;8.778;2023-04-24T02:07:23;13.50;76.70
24678;DHT22;12800;53.094;8.778;2023-04-24T02:09:49;13.50;76.80
24678;DHT22;12800;53.094;8.778;2023-04-24T02:12:15;13.50;76.90
24678;DHT22;12800;53.094;8.778;2023-04-24T02:14:42;13.50;76.60
24678;DHT22;12800;53.094;8.778;2023-04-24T02:17:08;13.50;76.40
24678;DHT22;12800;53.094;8.778;2023-04-24T02:19:34;13.60;76.60
24678;DHT22;12800;53.094;8.778;2023-04-24T02:22:00;13.60;76.40
24678;DHT22;12800;53.094;8.778;2023-04-24T02:24:25;13.60;76.40
24678;DHT22;12800;53.094;8.778;2023-04-24T02:26:51;13.60;76.50
24678;DHT22;12800;53.094;8.778;2023-04-24T02:29:16;13.60;76.40
24678;DHT22;12800;53.094;8.778;2023-04-24T02:31:42;13.50;76.30
24678;DHT22;12800;53.094;8.778;2023-04-24T02:34:08;13.50;76.40
24678;DHT22;12800;53.094;8.778;2023-04-24T02:36:33;13.50;76.40
24678;DHT22;12800;53.094;8.778;2023-04-24T02:38:59;13.50;76.60
24678;DHT22;12800;53.094;8.778;2023-04-24T02:41:26;13.50;76.60
24678;DHT22;12800;53.094;8.778;2023-04-24T02:43:57;13.40;76.80
24678;DHT22;12800;53.094;8.778;2023-04-24T02:46:23;13.40;76.90
24678;DHT22;12800;53.094;8.778;2023-04-24T02:48:48;13.40;77.10
24678;DHT22;12800;53.094;8.778;2023-04-24T02:51:14;13.30;77.30
24678;DHT22;12800;53.094;8.778;2023-04-24T02:53:39;13.30;77.40
24678;DHT22;12800;53.094;8.778;2023-04-24T02:56:05;13.40;77.70
24678;DHT22;12800;53.094;8.778;2023-04-24T02:58:31;13.30;77.60
24678;DHT22;12800;53.094;8.778;2023-04-24T03:00:56;13.30;77.70
24678;DHT22;12800;53.094;8.778;2023-04-24T03:03:22;13.30;77.80
24678;DHT22;12800;53.094;8.778;2023-04-24T03:05:48;13.30;77.80
24678;DHT22;12800;53.094;8.778;2023-04-24T03:08:13;13.30;77.80
24678;DHT22;12800;53.094;8.778;2023-04-24T03:10:42;13.30;77.70
24678;DHT22;12800;53.094;8.778;2023-04-24T03:13:07;13.30;77.60
24678;DHT22;12800;53.094;8.778;2023-04-24T03:15:33;13.30;77.60
24678;DHT22;12800;53.094;8.778;2023-04-24T03:17:58;13.30;77.60
24678;DHT22;12800;53.094;8.778;2023-04-24T03:20:25;13.30;77.60
24678;DHT22;12800;53.094;8.778;2023-04-24T03:22:51;13.30;77.70
24678;DHT22;12800;53.094;8.778;2023-04-24T03:25:17;13.30;78.40
24678;DHT22;12800;53.094;8.778;2023-04-24T03:27:42;13.30;77.70
24678;DHT22;12800;53.094;8.778;2023-04-24T03:30:08;13.30;77.70
24678;DHT22;12800;53.094;8.778;2023-04-24T03:32:34;13.30;77.60
24678;DHT22;12800;53.094;8.778;2023-04-24T03:35:00;13.40;77.30
24678;DHT22;12800;53.094;8.778;2023-04-24T03:37:25;13.40;77.30
24678;DHT22;12800;53.094;8.778;2023-04-24T03:39:52;13.40;77.20
24678;DHT22;12800;53.094;8.778;2023-04-24T03:42:17;13.40;77.90
24678;DHT22;12800;53.094;8.778;2023-04-24T03:44:43;13.40;76.90
24678;DHT22;12800;53.094;8.778;2023-04-24T03:47:09;13.40;76.90
24678;DHT22;12800;53.094;8.778;2023-04-24T03:49:34;13.40;76.90
24678;DHT22;12800;53.094;8.778;2023-04-24T03:52:00;13.40;76.90
24678;DHT22;12800;53.094;8.778;2023-04-24T03:54:26;13.40;77.00
24678;DHT22;12800;53.094;8.778;2023-04-24T03:56:52;13.40;77.00
24678;DHT22;12800;53.094;8.778;2023-04-24T03:59:17;13.40;76.80
24678;DHT22;12800;53.094;8.778;2023-04-24T04:01:43;13.50;76.60
24678;DHT22;12800;53.094;8.778;2023-04-24T04:04:09;13.50;76.50
24678;DHT22;12800;53.094;8.778;2023-04-24T04:06:34;13.50;76.50
24678;DHT22;12800;53.094;8.778;2023-04-24T04:09:01;13.40;76.10
24678;DHT22;12800;53.094;8.778;2023-04-24T04:11:27;13.40;76.00
24678;DHT22;12800;53.094;8.778;2023-04-24T04:13:52;13.50;75.90
24678;DHT22;12800;53.094;8.778;2023-04-24T04:16:18;13.40;75.70
24678;DHT22;12800;53.094;8.778;2023-04-24T04:18:44;13.40;75.80
24678;DHT22;12800;53.094;8.778;2023-04-24T04:21:10;13.40;75.40
24678;DHT22;12800;53.094;8.778;2023-04-24T04:23:36;13.40;75.30
24678;DHT22;12800;53.094;8.778;2023-04-24T04:26:02;13.40;75.30
24678;DHT22;12800;53.094;8.778;2023-04-24T04:28:29;13.40;75.50
24678;DHT22;12800;53.094;8.778;2023-04-24T04:30:56;13.40;75.40
24678;DHT22;12800;53.094;8.778;2023-04-24T04:33:23;13.40;75.40
24678;DHT22;12800;53.094;8.778;2023-04-24T04:35:49;13.40;75.40
24678;DHT22;12800;53.094;8.778;2023-04-24T04:38:15;13.40;75.40
24678;DHT22;12800;53.094;8.778;2023-04-24T04:40:42;13.40;75.80
24678;DHT22;12800;53.094;8.778;2023-04-24T04:43:08;13.40;75.00
24678;DHT22;12800;53.094;8.778;2023-04-24T04:45:33;13.40;74.90
24678;DHT22;12800;53.094;8.778;2023-04-24T04:48:00;13.40;74.80
24678;DHT22;12800;53.094;8.778;2023-04-24T04:50:27;13.40;74.60
24678;DHT22;12800;53.094;8.778;2023-04-24T04:52:53;13.40;74.40
24678;DHT22;12800;53.094;8.778;2023-04-24T04:55:18;13.40;74.20
24678;DHT22;12800;53.094;8.778;2023-04-24T04:57:45;13.40;74.20
24678;DHT22;12800;53.094;8.778;2023-04-24T05:00:11;13.50;74.50
24678;DHT22;12800;53.094;8.778;2023-04-24T05:02:38;13.50;74.30
24678;DHT22;12800;53.094;8.778;2023-04-24T05:05:04;13.50;74.10
24678;DHT22;12800;53.094;8.778;2023-04-24T05:07:31;13.50;74.00
24678;DHT22;12800;53.094;8.778;2023-04-24T05:09:57;13.50;74.10
24678;DHT22;12800;53.094;8.778;2023-04-24T05:12:22;13.50;74.10
24678;DHT22;12800;53.094;8.778;2023-04-24T05:14:48;13.50;74.00
24678;DHT22;12800;53.094;8.778;2023-04-24T05:17:14;13.60;73.80
24678;DHT22;12800;53.094;8.778;2023-04-24T05:19:40;13.60;73.60
24678;DHT22;12800;53.094;8.778;2023-04-24T05:22:05;13.60;73.60
24678;DHT22;12800;53.094;8.778;2023-04-24T05:24:35;13.60;73.40
24678;DHT22;12800;53.094;8.778;2023-04-24T05:27:02;13.60;73.50
24678;DHT22;12800;53.094;8.778;2023-04-24T05:29:28;13.60;73.40
24678;DHT22;12800;53.094;8.778;2023-04-24T05:31:56;13.60;74.30
24678;DHT22;12800;53.094;8.778;2023-04-24T05:34:22;13.70;73.20
24678;DHT22;12800;53.094;8.778;2023-04-24T05:36:47;13.70;73.40
24678;DHT22;12800;53.094;8.778;2023-04-24T05:39:13;13.70;73.40
24678;DHT22;12800;53.094;8.778;2023-04-24T05:41:40;13.70;73.20
24678;DHT22;12800;53.094;8.778;2023-04-24T05:44:06;13.80;73.40
24678;DHT22;12800;53.094;8.778;2023-04-24T05:46:31;13.80;73.20
24678;DHT22;12800;53.094;8.778;2023-04-24T05:48:57;13.80;73.10
24678;DHT22;12800;53.094;8.778;2023-04-24T05:51:23;13.80;73.00
24678;DHT22;12800;53.094;8.778;2023-04-24T05:53:49;13.80;72.90
24678;DHT22;12800;53.094;8.778;2023-04-24T05:56:15;13.80;73.00
24678;DHT22;12800;53.094;8.778;2023-04-24T05:58:41;13.80;73.00
24678;DHT22;12800;53.094;8.778;2023-04-24T06:01:06;13.80;72.90
24678;DHT22;12800;53.094;8.778;2023-04-24T06:03:32;13.80;73.10
24678;DHT22;12800;53.094;8.778;2023-04-24T06:05:58;13.90;73.10
24678;DHT22;12800;53.094;8.778;2023-04-24T06:08:23;13.90;73.20
24678;DHT22;12800;53.094;8.778;2023-04-24T06:10:49;14.00;73.10
24678;DHT22;12800;53.094;8.778;2023-04-24T06:13:15;14.00;73.20
24678;DHT22;12800;53.094;8.778;2023-04-24T06:15:41;14.00;73.30
24678;DHT22;12800;53.094;8.778;2023-04-24T06:18:07;14.00;73.20
24678;DHT22;12800;53.094;8.778;2023-04-24T06:20:32;14.00;73.00
24678;DHT22;12800;53.094;8.778;2023-04-24T06:22:58;14.00;72.80
24678;DHT22;12800;53.094;8.778;2023-04-24T06:25:25;13.90;72.90
24678;DHT22;12800;53.094;8.778;2023-04-24T06:27:52;13.90;73.00
24678;DHT22;12800;53.094;8.778;2023-04-24T06:30:17;14.00;72.90
24678;DHT22;12800;53.094;8.778;2023-04-24T06:32:43;14.00;72.70
24678;DHT22;12800;53.094;8.778;2023-04-24T06:35:09;14.00;72.50
24678;DHT22;12800;53.094;8.778;2023-04-24T06:37:35;14.00;72.50
24678;DHT22;12800;53.094;8.778;2023-04-24T06:40:01;14.10;72.40
24678;DHT22;12800;53.094;8.778;2023-04-24T06:42:26;14.10;72.40
24678;DHT22;12800;53.094;8.778;2023-04-24T06:44:52;14.10;72.30
24678;DHT22;12800;53.094;8.778;2023-04-24T06:47:18;14.00;72.20
24678;DHT22;12800;53.094;8.778;2023-04-24T06:49:44;14.00;72.20
24678;DHT22;12800;53.094;8.778;2023-04-24T06:52:09;13.90;72.30
24678;DHT22;12800;53.094;8.778;2023-04-24T06:54:35;13.90;72.50
24678;DHT22;12800;53.094;8.778;2023-04-24T06:57:00;13.90;72.50
24678;DHT22;12800;53.094;8.778;2023-04-24T06:59:27;13.90;72.80
24678;DHT22;12800;53.094;8.778;2023-04-24T07:01:54;13.90;72.50
24678;DHT22;12800;53.094;8.778;2023-04-24T07:04:20;13.90;72.50
24678;DHT22;12800;53.094;8.778;2023-04-24T07:06:46;13.80;72.60
24678;DHT22;12800;53.094;8.778;2023-04-24T07:09:12;13.80;72.70
24678;DHT22;12800;53.094;8.778;2023-04-24T07:11:42;13.80;72.90
24678;DHT22;12800;53.094;8.778;2023-04-24T07:14:08;13.90;73.00
24678;DHT22;12800;53.094;8.778;2023-04-24T07:16:34;13.90;72.70
24678;DHT22;12800;53.094;8.778;2023-04-24T07:19:00;13.90;72.80
24678;DHT22;12800;53.094;8.778;2023-04-24T07:21:25;13.90;72.90
24678;DHT22;12800;53.094;8.778;2023-04-24T07:23:51;14.00;73.10
24678;DHT22;12800;53.094;8.778;2023-04-24T07:26:17;14.10;73.00
24678;DHT22;12800;53.094;8.778;2023-04-24T07:28:43;14.10;72.60
24678;DHT22;12800;53.094;8.778;2023-04-24T07:31:08;14.20;72.40
24678;DHT22;12800;53.094;8.778;2023-04-24T07:33:34;14.20;72.20
24678;DHT22;12800;53.094;8.778;2023-04-24T07:36:01;14.30;72.20
24678;DHT22;12800;53.094;8.778;2023-04-24T07:38:29;14.30;72.40
24678;DHT22;12800;53.094;8.778;2023-04-24T07:40:55;14.50;72.30
24678;DHT22;12800;53.094;8.778;2023-04-24T07:43:21;14.60;72.10
24678;DHT22;12800;53.094;8.778;2023-04-24T07:45:47;14.70;71.80
24678;DHT22;12800;53.094;8.778;2023-04-24T07:48:12;14.70;71.50
24678;DHT22;12800;53.094;8.778;2023-04-24T07:50:41;14.70;71.10
24678;DHT22;12800;53.094;8.778;2023-04-24T07:53:07;14.70;70.90
24678;DHT22;12800;53.094;8.778;2023-04-24T07:55:33;14.70;70.80
24678;DHT22;12800;53.094;8.778;2023-04-24T07:57:58;14.70;70.80
24678;DHT22;12800;53.094;8.778;2023-04-24T08:00:24;14.80;70.80
24678;DHT22;12800;53.094;8.778;2023-04-24T08:02:50;14.90;71.10
24678;DHT22;12800;53.094;8.778;2023-04-24T08:05:16;14.90;70.50
24678;DHT22;12800;53.094;8.778;2023-04-24T08:07:41;15.00;70.20
24678;DHT22;12800;53.094;8.778;2023-04-24T08:10:11;15.10;70.90
24678;DHT22;12800;53.094;8.778;2023-04-24T08:12:37;15.10;69.50
24678;DHT22;12800;53.094;8.778;2023-04-24T08:15:03;15.10;69.20
24678;DHT22;12800;53.094;8.778;2023-04-24T08:17:29;15.10;69.20
24678;DHT22;12800;53.094;8.778;2023-04-24T08:19:55;15.00;68.90
24678;DHT22;12800;53.094;8.778;2023-04-24T08:22:29;14.90;68.70
24678;DHT22;12800;53.094;8.778;2023-04-24T08:24:55;14.80;68.80
24678;DHT22;12800;53.094;8.778;2023-04-24T08:27:22;14.70;69.10
24678;DHT22;12800;53.094;8.778;2023-04-24T08:29:48;14.60;69.10
24678;DHT22;12800;53.094;8.778;2023-04-24T08:32:14;14.50;69.20
24678;DHT22;12800;53.094;8.778;2023-04-24T08:34:40;14.50;69.40
24678;DHT22;12800;53.094;8.778;2023-04-24T08:37:06;14.50;69.20
24678;DHT22;12800;53.094;8.778;2023-04-24T08:39:31;14.60;69.50
24678;DHT22;12800;53.094;8.778;2023-04-24T08:41:57;14.70;69.30
24678;DHT22;12800;53.094;8.778;2023-04-24T08:44:34;14.80;69.30
24678;DHT22;12800;53.094;8.778;2023-04-24T08:47:02;14.90;69.00
24678;DHT22;12800;53.094;8.778;2023-04-24T08:49:28;15.00;68.40
24678;DHT22;12800;53.094;8.778;2023-04-24T08:51:55;15.00;68.10
24678;DHT22;12800;53.094;8.778;2023-04-24T08:54:21;15.10;67.90
24678;DHT22;12800;53.094;8.778;2023-04-24T08:56:48;15.10;67.80
24678;DHT22;12800;53.094;8.778;2023-04-24T08:59:15;15.10;67.70
24678;DHT22;12800;53.094;8.778;2023-04-24T09:01:41;15.10;67.40
24678;DHT22;12800;53.094;8.778;2023-04-24T09:04:08;15.00;67.60
24678;DHT22;12800;53.094;8.778;2023-04-24T09:06:36;15.10;67.50
24678;DHT22;12800;53.094;8.778;2023-04-24T09:09:02;15.10;67.40
24678;DHT22;12800;53.094;8.778;2023-04-24T09:11:30;15.20;67.10
24678;DHT22;12800;53.094;8.778;2023-04-24T09:13:57;15.20;67.20
24678;DHT22;12800;53.094;8.778;2023-04-24T09:16:25;15.30;67.60
24678;DHT22;12800;53.094;8.778;2023-04-24T09:18:51;15.30;67.00
24678;DHT22;12800;53.094;8.778;2023-04-24T09:21:17;15.40;67.20
24678;DHT22;12800;53.094;8.778;2023-04-24T09:23:43;15.50;67.00
24678;DHT22;12800;53.094;8.778;2023-04-24T09:26:09;15.60;66.40
24678;DHT22;12800;53.094;8.778;2023-04-24T09:28:37;15.70;67.20
24678;DHT22;12800;53.094;8.778;2023-04-24T09:31:15;15.70;66.30
24678;DHT22;12800;53.094;8.778;2023-04-24T09:34:04;15.60;66.10
24678;DHT22;12800;53.094;8.778;2023-04-24T09:36:42;15.50;65.90
24678;DHT22;12800;53.094;8.778;2023-04-24T09:39:13;15.40;65.90
24678;DHT22;12800;53.094;8.778;2023-04-24T09:41:52;15.30;66.20
24678;DHT22;12800;53.094;8.778;2023-04-24T09:44:22;15.20;67.10
24678;DHT22;12800;53.094;8.778;2023-04-24T09:46:56;15.10;66.20
24678;DHT22;12800;53.094;8.778;2023-04-24T09:49:27;15.00;66.30
24678;DHT22;12800;53.094;8.778;2023-04-24T09:52:08;14.90;66.40
24678;DHT22;12800;53.094;8.778;2023-04-24T09:54:35;14.80;66.70
24678;DHT22;12800;53.094;8.778;2023-04-24T09:57:06;14.60;67.00
24678;DHT22;12800;53.094;8.778;2023-04-24T09:59:32;14.60;67.40
24678;DHT22;12800;53.094;8.778;2023-04-24T10:01:59;14.50;67.70
24678;DHT22;12800;53.094;8.778;2023-04-24T10:04:27;14.50;67.70
24678;DHT22;12800;53.094;8.778;2023-04-24T10:06:56;14.50;67.80
24678;DHT22;12800;53.094;8.778;2023-04-24T10:09:24;14.40;67.70
24678;DHT22;12800;53.094;8.778;2023-04-24T10:11:51;14.40;67.90
24678;DHT22;12800;53.094;8.778;2023-04-24T10:14:21;14.40;68.00
24678;DHT22;12800;53.094;8.778;2023-04-24T10:16:47;14.30;68.10
24678;DHT22;12800;53.094;8.778;2023-04-24T10:19:14;14.40;68.20
24678;DHT22;12800;53.094;8.778;2023-04-24T10:21:41;14.30;67.90
24678;DHT22;12800;53.094;8.778;2023-04-24T10:24:15;14.30;68.20
24678;DHT22;12800;53.094;8.778;2023-04-24T10:26:42;14.30;68.40
24678;DHT22;12800;53.094;8.778;2023-04-24T10:29:11;14.30;68.40
24678;DHT22;12800;53.094;8.778;2023-04-24T10:31:38;14.20;68.60
24678;DHT22;12800;53.094;8.778;2023-04-24T10:34:08;14.20;68.70
24678;DHT22;12800;53.094;8.778;2023-04-24T10:36:35;14.20;68.90
24678;DHT22;12800;53.094;8.778;2023-04-24T10:39:03;14.20;68.80
24678;DHT22;12800;53.094;8.778;2023-04-24T10:41:32;14.20;68.90
24678;DHT22;12800;53.094;8.778;2023-04-24T10:44:11;14.20;69.00
24678;DHT22;12800;53.094;8.778;2023-04-24T10:46:38;14.20;69.20
24678;DHT22;12800;53.094;8.778;2023-04-24T10:49:08;14.20;70.00
24678;DHT22;12800;53.094;8.778;2023-04-24T10:56:51;14.40;68.90
24678;DHT22;12800;53.094;8.778;2023-04-24T10:59:34;14.30;68.90
24678;DHT22;12800;53.094;8.778;2023-04-24T11:02:00;14.30;69.00
24678;DHT22;12800;53.094;8.778;2023-04-24T11:04:30;14.40;69.10
24678;DHT22;12800;53.094;8.778;2023-04-24T11:06:57;14.50;69.20
24678;DHT22;12800;53.094;8.778;2023-04-24T11:09:26;14.50;69.20
24678;DHT22;12800;53.094;8.778;2023-04-24T11:12:03;14.60;69.20
24678;DHT22;12800;53.094;8.778;2023-04-24T11:14:29;14.60;69.00
24678;DHT22;12800;53.094;8.778;2023-04-24T11:16:55;14.70;68.90
24678;DHT22;12800;53.094;8.778;2023-04-24T11:19:24;14.70;69.70
24678;DHT22;12800;53.094;8.778;2023-04-24T11:22:04;14.70;69.00
24678;DHT22;12800;53.094;8.778;2023-04-24T11:29:58;14.60;69.20
24678;DHT22;12800;53.094;8.778;2023-04-24T11:35:06;14.40;70.00
24678;DHT22;12800;53.094;8.778;2023-04-24T11:37:39;14.30;70.30
24678;DHT22;12800;53.094;8.778;2023-04-24T11:40:10;14.30;70.90
24678;DHT22;12800;53.094;8.778;2023-04-24T11:42:44;14.20;72.20
24678;DHT22;12800;53.094;8.778;2023-04-24T11:45:12;14.10;71.60
24678;DHT22;12800;53.094;8.778;2023-04-24T11:47:38;14.00;71.70
24678;DHT22;12800;53.094;8.778;2023-04-24T11:50:07;13.90;71.90
24678;DHT22;12800;53.094;8.778;2023-04-24T11:52:38;13.80;73.20
24678;DHT22;12800;53.094;8.778;2023-04-24T11:55:05;13.80;72.70
24678;DHT22;12800;53.094;8.778;2023-04-24T11:57:32;13.70;72.80
24678;DHT22;12800;53.094;8.778;2023-04-24T12:00:03;13.70;73.50
24678;DHT22;12800;53.094;8.778;2023-04-24T12:02:30;13.70;74.10
24678;DHT22;12800;53.094;8.778;2023-04-24T12:04:56;13.70;74.50
24678;DHT22;12800;53.094;8.778;2023-04-24T12:07:23;13.70;75.60
24678;DHT22;12800;53.094;8.778;2023-04-24T12:10:00;13.70;75.30
24678;DHT22;12800;53.094;8.778;2023-04-24T12:12:27;13.70;75.60
24678;DHT22;12800;53.094;8.778;2023-04-24T12:14:57;13.70;76.10
24678;DHT22;12800;53.094;8.778;2023-04-24T12:17:31;13.70;76.40
24678;DHT22;12800;53.094;8.778;2023-04-24T12:19:59;13.80;76.80
24678;DHT22;12800;53.094;8.778;2023-04-24T12:22:25;13.80;77.10
24678;DHT22;12800;53.094;8.778;2023-04-24T12:25:03;13.70;77.20
24678;DHT22;12800;53.094;8.778;2023-04-24T12:27:32;13.70;77.60
24678;DHT22;12800;53.094;8.778;2023-04-24T12:30:00;13.60;77.70
24678;DHT22;12800;53.094;8.778;2023-04-24T12:32:26;13.60;78.10
24678;DHT22;12800;53.094;8.778;2023-04-24T12:34:53;13.60;78.40
24678;DHT22;12800;53.094;8.778;2023-04-24T12:37:18;13.50;78.50
24678;DHT22;12800;53.094;8.778;2023-04-24T12:40:01;13.40;78.60
24678;DHT22;12800;53.094;8.778;2023-04-24T12:42:29;13.40;79.00
24678;DHT22;12800;53.094;8.778;2023-04-24T12:45:03;13.30;79.10
24678;DHT22;12800;53.094;8.778;2023-04-24T12:47:31;13.30;79.40
24678;DHT22;12800;53.094;8.778;2023-04-24T12:49:57;13.30;79.90
24678;DHT22;12800;53.094;8.778;2023-04-24T12:52:24;13.30;80.00
24678;DHT22;12800;53.094;8.778;2023-04-24T12:54:53;13.20;80.10
24678;DHT22;12800;53.094;8.778;2023-04-24T12:57:20;13.20;80.60
24678;DHT22;12800;53.094;8.778;2023-04-24T12:59:46;13.20;80.90
24678;DHT22;12800;53.094;8.778;2023-04-24T13:02:12;13.10;81.10
24678;DHT22;12800;53.094;8.778;2023-04-24T13:04:37;13.10;81.10
24678;DHT22;12800;53.094;8.778;2023-04-24T13:07:03;13.00;80.90
24678;DHT22;12800;53.094;8.778;2023-04-24T13:09:29;12.90;81.00
24678;DHT22;12800;53.094;8.778;2023-04-24T13:11:55;12.80;80.80
24678;DHT22;12800;53.094;8.778;2023-04-24T13:14:22;12.50;80.60
24678;DHT22;12800;53.094;8.778;2023-04-24T13:16:47;12.30;80.90
24678;DHT22;12800;53.094;8.778;2023-04-24T13:19:13;12.10;81.00
24678;DHT22;12800;53.094;8.778;2023-04-24T13:21:39;12.00;81.50
24678;DHT22;12800;53.094;8.778;2023-04-24T13:24:04;11.80;81.40
24678;DHT22;12800;53.094;8.778;2023-04-24T13:26:33;11.70;82.00
24678;DHT22;12800;53.094;8.778;2023-04-24T13:28:58;11.70;82.20
24678;DHT22;12800;53.094;8.778;2023-04-24T13:31:24;11.60;82.50
24678;DHT22;12800;53.094;8.778;2023-04-24T13:33:50;11.50;82.80
24678;DHT22;12800;53.094;8.778;2023-04-24T13:36:15;11.50;83.00
24678;DHT22;12800;53.094;8.778;2023-04-24T13:38:43;11.40;82.70
24678;DHT22;12800;53.094;8.778;2023-04-24T13:41:10;11.40;83.10
24678;DHT22;12800;53.094;8.778;2023-04-24T13:43:35;11.40;83.00
24678;DHT22;12800;53.094;8.778;2023-04-24T13:46:01;11.50;83.00
24678;DHT22;12800;53.094;8.778;2023-04-24T13:48:29;11.40;83.00
24678;DHT22;12800;53.094;8.778;2023-04-24T13:50:55;11.40;83.00
24678;DHT22;12800;53.094;8.778;2023-04-24T13:53:20;11.30;83.10
24678;DHT22;12800;53.094;8.778;2023-04-24T13:55:46;11.30;83.40
24678;DHT22;12800;53.094;8.778;2023-04-24T13:58:12;11.30;83.50
24678;DHT22;12800;53.094;8.778;2023-04-24T14:00:37;11.20;83.40
24678;DHT22;12800;53.094;8.778;2023-04-24T14:03:03;11.20;84.00
24678;DHT22;12800;53.094;8.778;2023-04-24T14:05:29;11.20;84.20
24678;DHT22;12800;53.094;8.778;2023-04-24T14:07:54;11.20;84.40
24678;DHT22;12800;53.094;8.778;2023-04-24T14:10:20;11.20;84.40
24678;DHT22;12800;53.094;8.778;2023-04-24T14:12:46;11.20;84.40
24678;DHT22;12800;53.094;8.778;2023-04-24T14:15:11;11.10;84.30
24678;DHT22;12800;53.094;8.778;2023-04-24T14:17:38;11.10;84.00
24678;DHT22;12800;53.094;8.778;2023-04-24T14:20:05;11.10;83.80
24678;DHT22;12800;53.094;8.778;2023-04-24T14:22:31;11.10;83.40
24678;DHT22;12800;53.094;8.778;2023-04-24T14:24:56;11.10;83.20
24678;DHT22;12800;53.094;8.778;2023-04-24T14:27:23;11.10;83.20
24678;DHT22;12800;53.094;8.778;2023-04-24T14:29:49;11.00;83.40
24678;DHT22;12800;53.094;8.778;2023-04-24T14:32:15;11.10;83.40
24678;DHT22;12800;53.094;8.778;2023-04-24T14:34:40;11.00;83.30
24678;DHT22;12800;53.094;8.778;2023-04-24T14:37:07;11.10;83.80
24678;DHT22;12800;53.094;8.778;2023-04-24T14:39:32;11.00;83.30
24678;DHT22;12800;53.094;8.778;2023-04-24T14:41:58;11.00;83.60
24678;DHT22;12800;53.094;8.778;2023-04-24T14:44:24;11.10;84.00
24678;DHT22;12800;53.094;8.778;2023-04-24T14:46:50;11.10;83.70
24678;DHT22;12800;53.094;8.778;2023-04-24T14:49:16;11.10;83.70
24678;DHT22;12800;53.094;8.778;2023-04-24T14:51:41;11.10;83.60
24678;DHT22;12800;53.094;8.778;2023-04-24T14:54:08;11.10;83.70
24678;DHT22;12800;53.094;8.778;2023-04-24T14:56:36;11.10;83.70
24678;DHT22;12800;53.094;8.778;2023-04-24T14:59:02;11.10;83.70
24678;DHT22;12800;53.094;8.778;2023-04-24T15:01:29;11.10;83.60
24678;DHT22;12800;53.094;8.778;2023-04-24T15:03:54;11.10;83.60
24678;DHT22;12800;53.094;8.778;2023-04-24T15:06:20;11.10;83.90
24678;DHT22;12800;53.094;8.778;2023-04-24T15:08:46;11.20;83.90
24678;DHT22;12800;53.094;8.778;2023-04-24T15:11:11;11.20;84.10
24678;DHT22;12800;53.094;8.778;2023-04-24T15:13:37;11.20;83.80
24678;DHT22;12800;53.094;8.778;2023-04-24T15:16:03;11.20;83.90
24678;DHT22;12800;53.094;8.778;2023-04-24T15:18:29;11.20;83.70
24678;DHT22;12800;53.094;8.778;2023-04-24T15:20:55;11.20;83.40
24678;DHT22;12800;53.094;8.778;2023-04-24T15:23:21;11.20;83.30
24678;DHT22;12800;53.094;8.778;2023-04-24T15:25:47;11.20;83.10
24678;DHT22;12800;53.094;8.778;2023-04-24T15:28:13;11.20;83.40
24678;DHT22;12800;53.094;8.778;2023-04-24T15:30:39;11.20;83.30
24678;DHT22;12800;53.094;8.778;2023-04-24T15:33:04;11.20;82.80
24678;DHT22;12800;53.094;8.778;2023-04-24T15:35:31;11.10;83.10
24678;DHT22;12800;53.094;8.778;2023-04-24T15:37:56;11.20;83.70
24678;DHT22;12800;53.094;8.778;2023-04-24T15:40:22;11.20;83.60